Terminal Aerodrome Forecast
Issued by NWS

Home | Current Version | Previous Version | Text Only | Print | Product List | Glossary On
Versions: 1 2 3 4 5 6 7 8 9 10 11 12 13 14 15 16 17 18 19 20 21 22
000
FTUS44 KLIX 111700
TAFHDC
TAF
KHDC 111738Z 1118/1218 VRB03KT P6SM SCT040
     FM112000 VRB05KT P6SM VCTS SCT035CB SCT060
      TEMPO 1121/1201 VRB20G30KT 3SM TSRA BKN025CB
     FM120200 34004KT P6SM SCT060=

USA.gov is the U.S. government's official web portal to all federal, state and local government web resources and services.